Mount Vernon, Indiana
Current Conditions -  °F | °C
As of 10:15 AM on Sunday 23 Nov 2014 (Local Time) from KEHR Reporting Station
Overcast Overcast  
Wind Chill: 54°   Ceiling: 3100
Heat Index: 54°   Visibility: 10mi
Dew Point: 45°   Wind: 10mph
Humidity: 72%   Direction: 130°SE
Pressure: 29.75"   Gusts: NA
Location:  37.93°N, 87.9°W
Report Text: KEHR 231615Z AUTO 13009KT 10SM SCT023 OVC031 12/07 A2975 RMK AO1
Loading
Personal Weather Stations






























Interactive Weather Map New forecast layout! Learn more

10-Day Weather Forecast

Advertisements
Track Severe Weather on mobile